Time;durP1;ratioP1;P1;durP2;ratioP2;P2;SDS_P1;SDS_P2;PMS_P1;PMS_P2;Temp;Humidity;BMP_temperature;BMP_pressure;BME280_temperature;BME280_humidity;BME280_pressure;Samples;Min_cycle;Max_cycle;Signal;HPM_P1;HPM_P2
2023/12/14 00:00:25;;;;;;;35.72;9.48;;;;;;;8.45;77.29;99308.16;10277131;28;20086;-84
2023/12/14 00:05:27;;;;;;;30.98;10.05;;;;;;;8.41;77.08;99309.56;10289573;28;20050;-84
2023/12/14 00:10:29;;;;;;;53.55;9.45;;;;;;;8.38;77.39;99325.97;10290463;28;20039;-84
2023/12/14 00:15:31;;;;;;;31.50;10.55;;;;;;;8.41;77.45;99324.75;10295520;28;20046;-84
2023/12/14 00:20:32;;;;;;;104.90;13.18;;;;;;;8.34;77.50;99335.38;10279104;28;20443;-83
2023/12/14 00:25:34;;;;;;;43.03;10.85;;;;;;;8.27;77.77;99342.50;10292716;28;20039;-83
2023/12/14 00:30:36;;;;;;;46.47;10.07;;;;;;;8.21;77.57;99356.63;10277686;28;20043;-86
2023/12/14 00:35:37;;;;;;;42.92;9.85;;;;;;;8.23;77.76;99352.72;10280885;28;20046;-86
2023/12/14 00:40:39;;;;;;;131.10;12.95;;;;;;;8.21;77.61;99353.94;10282624;28;20051;-85
2023/12/14 00:45:41;;;;;;;52.33;11.48;;;;;;;8.12;77.59;99362.06;10299730;28;20509;-86
2023/12/14 00:50:42;;;;;;;66.40;9.85;;;;;;;8.15;77.59;99379.59;10283373;28;20047;-83
2023/12/14 00:55:45;;;;;;;65.25;14.82;;;;;;;8.11;77.94;99392.53;10298490;28;20078;-84
2023/12/14 01:00:47;;;;;;;103.85;13.00;;;;;;;8.23;77.51;99397.44;10286793;28;20047;-86
2023/12/14 01:05:49;;;;;;;39.13;10.05;;;;;;;8.31;77.00;99405.34;10302866;28;20502;-86
2023/12/14 01:10:50;;;;;;;32.10;10.18;;;;;;;8.39;77.12;99417.81;10298802;28;20134;-87
2023/12/14 01:15:52;;;;;;;24.90;9.88;;;;;;;8.46;76.95;99430.31;10280449;28;20046;-86
2023/12/14 01:20:54;;;;;;;29.23;10.18;;;;;;;8.51;76.83;99448.50;10300022;28;20039;-86
2023/12/14 01:25:55;;;;;;;26.98;9.98;;;;;;;8.56;77.13;99464.88;10286311;28;20494;-86
2023/12/14 01:30:57;;;;;;;28.20;10.13;;;;;;;8.63;77.13;99465.81;10286319;28;20043;-86
2023/12/14 01:35:59;;;;;;;31.20;11.63;;;;;;;8.70;76.69;99473.91;10294361;28;20051;-84
2023/12/14 01:41:00;;;;;;;29.75;10.80;;;;;;;8.73;77.18;99484.28;10291148;28;20126;-84
2023/12/14 01:46:02;;;;;;;28.73;10.93;;;;;;;8.77;76.72;99495.44;10273997;28;20106;-84
2023/12/14 01:51:04;;;;;;;32.20;10.90;;;;;;;8.79;76.79;99504.13;10281581;28;20143;-84
2023/12/14 01:56:06;;;;;;;26.33;11.73;;;;;;;8.82;76.72;99501.91;10286964;28;20074;-84
2023/12/14 02:01:17;;;;;;;24.83;10.05;;;;;;;8.82;76.74;99515.31;10287776;28;20053;-84
2023/12/14 02:06:21;;;;;;;32.95;11.20;;;;;;;8.84;76.86;99520.47;10271429;28;20125;-84
2023/12/14 02:11:22;;;;;;;34.92;12.55;;;;;;;8.77;77.42;99515.03;10276391;28;20049;-84
2023/12/14 02:16:24;;;;;;;29.23;11.00;;;;;;;8.80;77.05;99528.06;10270935;28;20054;-84
2023/12/14 02:21:26;;;;;;;29.65;11.57;;;;;;;8.83;77.02;99522.34;10285228;28;20149;-84
2023/12/14 02:26:28;;;;;;;31.45;11.05;;;;;;;8.84;76.88;99532.03;10285472;28;20526;-84
2023/12/14 02:31:29;;;;;;;38.35;12.65;;;;;;;8.68;77.34;99542.94;10268978;28;20105;-84
2023/12/14 02:36:31;;;;;;;35.40;12.60;;;;;;;8.62;77.42;99547.19;10286511;28;20058;-84
2023/12/14 02:41:33;;;;;;;40.90;11.40;;;;;;;8.53;77.68;99545.59;10286240;28;20038;-84
2023/12/14 02:46:34;;;;;;;42.15;12.32;;;;;;;8.42;78.04;99554.91;10309809;28;20061;-84
2023/12/14 02:51:36;;;;;;;83.47;13.30;;;;;;;8.38;78.07;99558.94;10301698;28;20073;-84
2023/12/14 02:56:37;;;;;;;125.72;14.80;;;;;;;8.42;78.07;99557.59;10328461;28;20053;-84
2023/12/14 03:01:39;;;;;;;75.70;14.10;;;;;;;8.39;78.33;99565.94;10315884;28;20490;-84
2023/12/14 03:06:40;;;;;;;80.72;14.82;;;;;;;8.43;78.21;99561.09;10274141;28;20565;-84
2023/12/14 03:11:42;;;;;;;62.65;13.43;;;;;;;8.51;77.91;99564.53;10289746;28;20043;-83
2023/12/14 03:16:44;;;;;;;68.55;13.90;;;;;;;8.53;77.53;99570.53;10298696;28;20047;-84
2023/12/14 03:21:45;;;;;;;60.15;13.60;;;;;;;8.45;78.11;99584.00;10293362;28;20055;-84
2023/12/14 03:26:47;;;;;;;47.80;13.15;;;;;;;8.25;78.75;99590.84;10288541;28;20039;-84
2023/12/14 03:31:48;;;;;;;113.78;14.38;;;;;;;8.24;78.65;99591.88;10292434;28;20101;-85
2023/12/14 03:36:50;;;;;;;42.60;12.70;;;;;;;8.36;78.40;99606.47;10295717;28;20073;-84
2023/12/14 03:41:52;;;;;;;62.45;12.00;;;;;;;8.29;78.66;99618.91;10298639;28;20141;-82
2023/12/14 03:46:54;;;;;;;63.22;12.82;;;;;;;8.36;78.17;99616.38;10292577;28;20569;-84
2023/12/14 03:51:56;;;;;;;40.17;11.85;;;;;;;8.52;78.10;99618.94;10292932;28;20049;-84
2023/12/14 03:56:58;;;;;;;42.05;12.38;;;;;;;8.55;77.57;99637.34;10297899;28;20069;-85
2023/12/14 04:01:59;;;;;;;52.03;14.48;;;;;;;8.27;78.89;99637.84;10305411;28;20066;-85
2023/12/14 04:07:09;;;;;;;46.95;11.98;;;;;;;8.38;78.18;99652.66;10289513;28;20089;-84
2023/12/14 04:12:11;;;;;;;34.35;12.18;;;;;;;8.46;77.77;99668.69;10288841;28;20371;-84
2023/12/14 04:17:13;;;;;;;36.63;11.23;;;;;;;8.58;77.49;99670.97;10301128;28;20149;-84
2023/12/14 04:22:15;;;;;;;36.05;12.18;;;;;;;8.64;77.24;99671.06;10299182;28;20051;-85
2023/12/14 04:27:17;;;;;;;42.15;12.45;;;;;;;8.71;76.86;99672.00;10303810;28;20057;-84
2023/12/14 04:32:18;;;;;;;38.17;13.63;;;;;;;8.72;77.13;99683.56;10290462;28;20110;-85
2023/12/14 04:37:20;;;;;;;39.60;14.50;;;;;;;8.76;76.94;99700.94;10285084;28;20126;-84
2023/12/14 04:42:21;;;;;;;40.05;13.05;;;;;;;8.78;77.05;99706.94;10300527;28;20082;-84
2023/12/14 04:47:23;;;;;;;42.45;12.35;;;;;;;8.84;76.78;99713.44;10304096;28;20043;-84
2023/12/14 04:52:25;;;;;;;37.95;12.77;;;;;;;8.81;76.90;99713.81;10283839;28;20055;-84
2023/12/14 04:57:27;;;;;;;41.25;12.93;;;;;;;8.84;76.82;99734.88;10300050;28;20074;-84
2023/12/14 05:02:30;;;;;;;39.67;14.68;;;;;;;8.78;77.04;99736.44;10297393;28;20109;-84
2023/12/14 05:07:37;;;;;;;47.22;12.82;;;;;;;8.79;77.07;99743.47;10312717;28;20106;-86
2023/12/14 05:12:39;;;;;;;48.22;13.27;;;;;;;8.67;77.23;99744.91;10314426;28;20043;-85
2023/12/14 05:17:41;;;;;;;50.60;14.07;;;;;;;8.65;77.21;99744.22;10294353;28;20066;-87
2023/12/14 05:22:43;;;;;;;116.15;16.80;;;;;;;8.64;77.30;99764.81;10297888;28;20082;-86
2023/12/14 05:27:45;;;;;;;55.17;13.05;;;;;;;8.69;77.38;99770.50;10292109;28;20121;-86
2023/12/14 05:32:46;;;;;;;162.90;18.05;;;;;;;8.68;76.90;99779.53;10291914;28;20086;-84
2023/12/14 05:37:48;;;;;;;116.68;14.85;;;;;;;8.61;76.84;99788.47;10297191;28;20045;-83
2023/12/14 05:42:51;;;;;;;229.38;22.08;;;;;;;8.48;76.99;99789.03;10284920;28;20051;-85
2023/12/14 05:47:52;;;;;;;80.63;11.77;;;;;;;8.53;76.65;99808.09;10299002;28;20422;-86
2023/12/14 05:52:54;;;;;;;139.43;14.15;;;;;;;8.50;76.65;99820.00;10278425;28;20049;-87
2023/12/14 05:57:56;;;;;;;88.07;12.93;;;;;;;8.47;76.95;99825.72;10293131;28;20521;-88
2023/12/14 06:02:57;;;;;;;40.17;12.23;;;;;;;8.52;77.08;99839.41;10287745;28;20066;-89
2023/12/14 06:07:59;;;;;;;138.93;15.63;;;;;;;8.50;77.30;99851.31;10278870;28;20046;-87
2023/12/14 06:13:01;;;;;;;54.35;9.85;;;;;;;8.39;76.89;99857.84;10289957;28;20049;-86
2023/12/14 06:18:04;;;;;;;51.25;10.93;;;;;;;8.31;77.39;99868.59;10273974;28;20367;-86
2023/12/14 06:23:06;;;;;;;93.10;15.27;;;;;;;8.29;77.29;99881.31;10284917;28;20152;-87
2023/12/14 06:28:08;;;;;;;46.63;11.15;;;;;;;8.39;77.41;99889.16;10287366;28;20051;-88
2023/12/14 06:33:10;;;;;;;50.63;11.27;;;;;;;8.40;77.07;99901.56;10270294;28;20069;-88
2023/12/14 06:38:12;;;;;;;40.13;11.40;;;;;;;8.34;77.20;99905.75;10296346;28;20054;-85
2023/12/14 06:43:14;;;;;;;32.17;11.27;;;;;;;8.42;77.15;99924.50;10299135;28;20794;-85
2023/12/14 06:48:15;;;;;;;30.67;10.13;;;;;;;8.44;77.27;99927.84;10301505;28;20066;-85
2023/12/14 06:53:17;;;;;;;20.17;9.18;;;;;;;8.43;77.33;99933.34;10312486;28;20057;-90
2023/12/14 06:58:19;;;;;;;23.95;9.82;;;;;;;8.49;77.09;99936.19;10325474;23;20105;-60
2023/12/14 07:03:20;;;;;;;21.88;9.90;;;;;;;8.67;76.83;99943.19;10317294;28;20043;-65
2023/12/14 07:08:21;;;;;;;21.55;9.73;;;;;;;8.63;76.79;99944.50;10318893;28;20059;-64
2023/12/14 07:13:23;;;;;;;19.35;8.98;;;;;;;8.60;76.66;99950.22;10316198;28;20134;-65
2023/12/14 07:18:24;;;;;;;18.58;8.80;;;;;;;8.60;76.74;99958.25;10302340;28;20122;-64
2023/12/14 07:23:26;;;;;;;18.60;9.73;;;;;;;8.56;76.90;99962.28;10306318;28;20047;-65
2023/12/14 07:28:28;;;;;;;19.20;9.25;;;;;;;8.64;76.36;99970.31;10319796;28;20031;-64
2023/12/14 07:33:29;;;;;;;18.35;8.02;;;;;;;8.72;76.62;99992.53;10321879;28;20051;-64
2023/12/14 07:38:31;;;;;;;15.40;8.15;;;;;;;8.75;76.83;100004.78;10321629;28;20042;-65
2023/12/14 07:43:32;;;;;;;15.95;8.05;;;;;;;8.74;76.59;100009.28;10315309;28;20051;-64
2023/12/14 07:48:34;;;;;;;17.02;7.85;;;;;;;8.66;76.73;100022.69;10318412;28;20138;-64
2023/12/14 07:53:36;;;;;;;15.93;8.73;;;;;;;8.73;76.73;100030.91;10321022;28;20089;-65
2023/12/14 07:58:37;;;;;;;17.13;9.60;;;;;;;8.83;76.66;100028.84;10320567;28;20084;-64
2023/12/14 08:03:39;;;;;;;15.60;8.07;;;;;;;8.79;76.74;100032.03;10321232;28;20042;-64
2023/12/14 08:08:40;;;;;;;22.60;9.60;;;;;;;8.82;76.96;100048.63;10291019;28;20097;-64
2023/12/14 08:13:42;;;;;;;21.98;9.45;;;;;;;8.87;76.96;100056.97;10288847;28;20047;-64
2023/12/14 08:18:47;;;;;;;19.52;10.38;;;;;;;8.97;76.87;100058.63;10284137;28;20073;-64
2023/12/14 08:23:48;;;;;;;21.05;9.95;;;;;;;8.88;76.82;100077.41;10289872;28;20168;-64
2023/12/14 08:28:49;;;;;;;19.83;9.73;;;;;;;8.86;76.81;100087.47;10283761;28;20672;-64
2023/12/14 08:33:52;;;;;;;18.83;9.38;;;;;;;8.85;77.21;100104.56;10287552;28;20050;-63
2023/12/14 08:38:54;;;;;;;23.95;10.15;;;;;;;8.95;76.91;100103.56;10281543;28;20065;-63
2023/12/14 08:43:55;;;;;;;23.75;10.18;;;;;;;9.13;76.62;100112.19;10279024;28;20054;-64
2023/12/14 08:48:57;;;;;;;25.88;13.73;;;;;;;9.25;76.81;100132.25;10290541;28;20113;-66
2023/12/14 08:53:58;;;;;;;23.48;11.68;;;;;;;9.38;76.60;100128.19;10288966;28;20090;-64
2023/12/14 08:59:03;;;;;;;22.20;11.35;;;;;;;9.44;76.53;100144.44;10281665;28;20909;-64
2023/12/14 09:04:05;;;;;;;24.67;11.80;;;;;;;9.56;76.67;100152.97;10280089;28;20089;-64
2023/12/14 09:09:06;;;;;;;21.50;11.35;;;;;;;9.65;76.93;100173.34;10287426;28;20049;-63
2023/12/14 09:14:07;;;;;;;15.98;9.75;;;;;;;9.69;76.84;100185.41;10296255;28;20046;-64
2023/12/14 09:19:09;;;;;;;17.48;9.73;;;;;;;9.78;76.64;100196.13;10292409;28;20045;-64
2023/12/14 09:24:11;;;;;;;12.80;8.18;;;;;;;9.70;77.10;100200.53;10283281;28;20390;-64
2023/12/14 09:29:15;;;;;;;14.60;8.05;;;;;;;9.86;76.74;100204.97;10288404;28;20047;-63
2023/12/14 09:34:17;;;;;;;16.23;7.75;;;;;;;9.98;76.77;100226.09;10291068;28;20054;-64
2023/12/14 09:39:21;;;;;;;17.33;8.98;;;;;;;10.04;76.19;100234.25;10283927;28;20061;-62
2023/12/14 09:44:23;;;;;;;19.33;9.63;;;;;;;10.03;76.68;100251.41;10284554;28;20430;-63
2023/12/14 09:49:32;;;;;;;16.52;8.77;;;;;;;10.00;76.46;100257.13;10284870;28;20157;-62
2023/12/14 09:54:33;;;;;;;5.85;3.58;;;;;;;9.53;77.87;100269.50;10289982;28;20057;-63
2023/12/14 09:59:35;;;;;;;3.38;1.92;;;;;;;9.30;78.92;100272.09;10284113;28;20046;-63
2023/12/14 10:04:37;;;;;;;3.42;2.13;;;;;;;9.34;78.99;100277.94;10278554;28;20498;-63
2023/12/14 10:09:38;;;;;;;4.35;1.48;;;;;;;9.38;78.90;100287.31;10281693;28;20054;-62
2023/12/14 10:14:40;;;;;;;3.17;1.15;;;;;;;9.50;78.45;100298.53;10280163;28;20487;-63
2023/12/14 10:19:45;;;;;;;3.53;1.85;;;;;;;9.59;78.08;100302.88;10282609;28;20478;-63
2023/12/14 10:24:47;;;;;;;2.63;0.75;;;;;;;9.75;77.62;100302.00;10295114;28;20046;-65
2023/12/14 10:29:50;;;;;;;1.63;0.88;;;;;;;9.79;77.40;100307.84;10319400;28;20069;-64
2023/12/14 10:34:52;;;;;;;2.38;1.13;;;;;;;9.91;77.18;100306.47;10317007;28;20077;-65
2023/12/14 10:39:54;;;;;;;1.95;0.82;;;;;;;9.89;76.65;100312.03;10312013;28;20105;-64
2023/12/14 10:44:56;;;;;;;1.73;0.82;;;;;;;9.89;76.61;100332.66;10310830;28;20149;-65
2023/12/14 10:50:19;;;;;;;2.63;1.25;;;;;;;9.99;76.56;100330.66;10309791;28;20113;-65
2023/12/14 10:55:31;;;;;;;2.30;0.65;;;;;;;10.03;76.35;100344.53;10310837;28;20050;-65
2023/12/14 11:00:33;;;;;;;1.70;0.70;;;;;;;10.13;75.90;100343.34;10312701;28;20074;-65
2023/12/14 11:05:34;;;;;;;3.80;1.35;;;;;;;10.34;75.42;100350.00;10312499;28;20075;-65
2023/12/14 11:10:41;;;;;;;1.05;0.60;;;;;;;10.47;75.08;100352.97;10304709;28;20039;-65
2023/12/14 11:15:51;;;;;;;1.70;0.60;;;;;;;10.71;74.73;100367.31;10304067;28;20081;-65
2023/12/14 11:21:00;;;;;;;1.77;1.00;;;;;;;10.77;74.26;100363.91;10316308;28;20560;-65
2023/12/14 11:26:08;;;;;;;1.88;0.80;;;;;;;10.68;74.17;100371.19;10314366;28;20039;-65
2023/12/14 11:31:10;;;;;;;8.50;2.40;;;;;;;10.68;73.99;100375.72;10296486;28;20053;-64
2023/12/14 11:36:14;;;;;;;9.75;2.80;;;;;;;10.77;74.19;100390.78;10293094;28;20451;-61
2023/12/14 11:41:16;;;;;;;2.92;0.50;;;;;;;10.85;73.61;100390.75;10279249;28;20051;-61
2023/12/14 11:46:17;;;;;;;0.90;0.50;;;;;;;10.90;73.36;100417.13;10285042;28;20050;-61
2023/12/14 11:51:19;;;;;;;1.20;0.47;;;;;;;10.90;73.64;100427.88;10283023;28;20498;-61
2023/12/14 11:56:22;;;;;;;1.20;0.50;;;;;;;11.04;72.71;100415.53;10280813;28;20043;-62
2023/12/14 12:01:25;;;;;;;1.67;0.40;;;;;;;11.16;72.59;100416.78;10288107;28;20050;-63
2023/12/14 12:06:27;;;;;;;1.30;0.40;;;;;;;11.17;71.56;100409.56;10287260;28;20047;-61
2023/12/14 12:11:30;;;;;;;1.00;0.40;;;;;;;11.12;71.40;100410.09;10284012;28;20157;-62
2023/12/14 12:16:33;;;;;;;2.15;0.43;;;;;;;11.23;71.33;100406.13;10278254;28;20058;-62
2023/12/14 12:21:35;;;;;;;1.20;0.45;;;;;;;10.98;70.98;100425.13;10285340;28;20049;-63
2023/12/14 12:26:36;;;;;;;1.25;0.52;;;;;;;10.62;70.40;100428.31;10293028;28;20478;-61
2023/12/14 12:31:38;;;;;;;4.10;0.50;;;;;;;10.46;69.37;100439.13;10286822;28;20054;-62
2023/12/14 12:36:39;;;;;;;3.72;0.50;;;;;;;10.45;69.31;100446.38;10287182;28;20113;-63
2023/12/14 12:41:41;;;;;;;0.80;0.47;;;;;;;10.50;68.65;100448.53;10295294;28;20043;-63
2023/12/14 12:46:42;;;;;;;1.10;0.40;;;;;;;10.39;69.25;100452.44;10293943;28;20517;-62
2023/12/14 12:51:49;;;;;;;1.03;0.47;;;;;;;10.19;69.31;100453.78;10286312;28;20058;-62
2023/12/14 12:56:51;;;;;;;1.00;0.60;;;;;;;10.14;69.17;100457.00;10290143;28;20046;-62
2023/12/14 13:01:54;;;;;;;1.90;0.80;;;;;;;10.26;69.21;100463.69;10293305;28;20046;-61
2023/12/14 13:06:55;;;;;;;1.45;0.50;;;;;;;10.21;69.25;100467.88;10294304;28;20050;-69
2023/12/14 13:11:57;;;;;;;1.80;0.70;;;;;;;10.29;69.52;100479.47;10305574;28;20094;-66
2023/12/14 13:16:59;;;;;;;1.70;0.68;;;;;;;10.34;69.37;100488.91;10315139;28;20051;-70
2023/12/14 13:22:01;;;;;;;1.73;0.50;;;;;;;10.33;69.67;100482.69;10316424;28;20288;-68
2023/12/14 13:27:03;;;;;;;0.93;0.50;;;;;;;10.29;69.51;100492.06;10307934;28;20142;-69
2023/12/14 13:32:05;;;;;;;0.45;0.40;;;;;;;10.38;69.48;100495.59;10308802;28;20069;-68
2023/12/14 13:37:08;;;;;;;0.98;0.30;;;;;;;10.49;68.91;100501.44;10310356;28;20332;-70
2023/12/14 13:42:10;;;;;;;1.27;0.50;;;;;;;10.38;69.23;100507.19;10305423;28;20054;-70
2023/12/14 13:47:11;;;;;;;0.70;0.50;;;;;;;10.41;69.29;100524.81;10291757;28;20047;-68
2023/12/14 13:52:13;;;;;;;0.70;0.40;;;;;;;10.37;68.75;100521.63;10322009;28;20649;-65
2023/12/14 13:57:14;;;;;;;0.70;0.40;;;;;;;10.35;68.92;100528.16;10329145;28;20031;-66
2023/12/14 14:02:15;;;;;;;0.77;0.40;;;;;;;10.34;68.73;100553.38;10322091;28;20127;-62
2023/12/14 14:07:18;;;;;;;1.45;0.60;;;;;;;10.32;68.81;100566.97;10284792;28;20055;-62
2023/12/14 14:12:19;;;;;;;3.00;0.40;;;;;;;10.19;69.11;100580.91;10281597;28;20046;-62
2023/12/14 14:17:20;;;;;;;0.28;0.20;;;;;;;10.08;69.00;100591.97;10284439;28;20057;-63
2023/12/14 14:22:22;;;;;;;0.68;0.30;;;;;;;10.02;69.87;100601.53;10278003;28;20053;-62
2023/12/14 14:27:25;;;;;;;0.70;0.30;;;;;;;9.96;69.50;100614.78;10279981;28;20050;-64
2023/12/14 14:32:27;;;;;;;0.77;0.32;;;;;;;9.94;69.44;100620.31;10282404;28;20051;-65
2023/12/14 14:37:29;;;;;;;1.45;0.40;;;;;;;9.67;70.31;100633.00;10283597;28;20082;-65
2023/12/14 14:42:30;;;;;;;2.05;0.35;;;;;;;9.57;70.80;100642.19;10286224;28;20053;-63
2023/12/14 14:47:31;;;;;;;1.15;0.45;;;;;;;9.53;70.63;100657.78;10288312;28;20544;-64
2023/12/14 14:52:33;;;;;;;2.28;0.88;;;;;;;9.56;70.86;100675.38;10303991;28;20053;-64
2023/12/14 14:57:36;;;;;;;2.55;1.25;;;;;;;9.59;70.77;100670.53;10273781;28;20046;-62
2023/12/14 15:02:37;;;;;;;2.42;1.00;;;;;;;9.56;70.44;100681.63;10283293;28;20054;-64
2023/12/14 15:07:39;;;;;;;2.72;1.33;;;;;;;9.50;70.65;100688.47;10277999;28;20042;-65
2023/12/14 15:12:40;;;;;;;4.78;1.20;;;;;;;9.51;70.08;100700.03;10279565;28;20057;-65
2023/12/14 15:17:42;;;;;;;2.47;0.88;;;;;;;9.40;70.20;100717.25;10297942;28;20043;-66
2023/12/14 15:22:43;;;;;;;2.13;0.82;;;;;;;9.49;69.94;100726.19;10303781;28;20150;-66
2023/12/14 15:27:45;;;;;;;2.10;1.20;;;;;;;9.46;70.23;100746.13;10304465;28;20054;-68
2023/12/14 15:32:46;;;;;;;2.63;0.85;;;;;;;9.44;69.82;100764.25;10277653;28;20038;-66
2023/12/14 15:37:48;;;;;;;1.65;0.57;;;;;;;9.46;69.96;100769.47;10278868;28;20047;-65
2023/12/14 15:42:51;;;;;;;3.53;1.30;;;;;;;9.21;69.66;100781.84;10274105;28;20046;-66
2023/12/14 15:47:52;;;;;;;2.22;1.30;;;;;;;8.88;70.65;100795.81;10278924;28;20066;-66
2023/12/14 15:52:54;;;;;;;0.82;0.40;;;;;;;8.63;70.65;100804.63;10277391;28;20074;-66
2023/12/14 15:57:55;;;;;;;1.50;0.50;;;;;;;8.68;70.68;100813.06;10278185;28;20058;-65
2023/12/14 16:02:57;;;;;;;1.85;0.95;;;;;;;8.63;70.66;100821.56;10281812;28;20430;-65
2023/12/14 16:07:58;;;;;;;2.38;0.60;;;;;;;8.68;70.60;100829.97;10286789;28;20047;-65
2023/12/14 16:13:00;;;;;;;3.15;1.05;;;;;;;8.81;70.34;100844.88;10282107;28;20455;-65
2023/12/14 16:18:01;;;;;;;2.50;1.02;;;;;;;8.66;70.63;100848.03;10284301;28;20038;-67
2023/12/14 16:23:03;;;;;;;1.90;0.80;;;;;;;8.72;70.23;100850.13;10287309;28;20039;-62
2023/12/14 16:28:04;;;;;;;2.75;1.10;;;;;;;8.73;69.94;100864.38;10279171;28;20137;-60
2023/12/14 16:33:06;;;;;;;4.57;1.40;;;;;;;8.66;70.09;100863.28;10278105;28;20046;-60
2023/12/14 16:38:07;;;;;;;2.83;1.00;;;;;;;8.59;69.92;100870.22;10280881;28;20062;-60
2023/12/14 16:43:09;;;;;;;3.13;0.95;;;;;;;8.51;70.19;100876.34;10274647;28;20093;-60
2023/12/14 16:48:10;;;;;;;1.70;0.88;;;;;;;8.48;69.85;100885.53;10280619;28;20047;-59
2023/12/14 16:53:11;;;;;;;2.85;1.20;;;;;;;8.42;69.89;100899.53;10279041;28;20042;-59
2023/12/14 16:58:13;;;;;;;2.72;0.80;;;;;;;8.40;69.91;100904.16;10278016;28;20079;-61
2023/12/14 17:03:14;;;;;;;3.53;1.27;;;;;;;8.40;70.02;100924.75;10278197;28;20136;-60
2023/12/14 17:08:16;;;;;;;3.40;1.20;;;;;;;8.36;70.16;100918.84;10279889;28;20051;-60
2023/12/14 17:13:17;;;;;;;3.22;1.60;;;;;;;8.31;70.12;100929.13;10280478;28;20052;-62
2023/12/14 17:18:19;;;;;;;2.78;0.98;;;;;;;8.28;69.91;100934.81;10276276;28;20084;-60
2023/12/14 17:23:20;;;;;;;3.05;1.60;;;;;;;8.27;70.52;100946.50;10278760;28;20050;-60
2023/12/14 17:28:22;;;;;;;2.67;0.70;;;;;;;8.20;70.37;100951.59;10278911;28;20883;-61
2023/12/14 17:33:23;;;;;;;2.22;0.90;;;;;;;8.10;70.48;100959.66;10282849;28;20063;-59
2023/12/14 17:38:25;;;;;;;3.65;0.90;;;;;;;8.05;70.43;100974.47;10286287;28;20047;-61
2023/12/14 17:43:27;;;;;;;4.55;1.77;;;;;;;7.94;70.74;100978.16;10280834;28;20043;-62
2023/12/14 17:48:29;;;;;;;3.15;1.33;;;;;;;7.91;70.54;100997.16;10277543;28;20066;-62
2023/12/14 17:53:30;;;;;;;3.05;1.30;;;;;;;7.93;70.69;101004.06;10284249;28;20046;-61
2023/12/14 17:58:32;;;;;;;5.82;2.05;;;;;;;7.68;71.21;101013.53;10289849;28;20624;-62
2023/12/14 18:03:33;;;;;;;6.03;2.38;;;;;;;7.76;70.52;101015.50;10285100;28;20043;-61
2023/12/14 18:08:35;;;;;;;5.65;2.67;;;;;;;7.78;71.00;101028.72;10278800;28;20046;-62
2023/12/14 18:13:36;;;;;;;6.28;2.72;;;;;;;7.90;70.61;101027.63;10281439;28;20573;-62
2023/12/14 18:18:38;;;;;;;4.80;2.28;;;;;;;7.83;70.26;101039.88;10280534;28;20418;-63
2023/12/14 18:23:39;;;;;;;10.15;3.53;;;;;;;7.57;71.28;101050.28;10275479;28;20457;-61
2023/12/14 18:28:41;;;;;;;8.50;3.00;;;;;;;7.14;72.81;101066.50;10289507;28;20046;-62
2023/12/14 18:33:46;;;;;;;5.45;2.20;;;;;;;6.97;73.21;101072.50;10288265;28;20130;-61
2023/12/14 18:38:47;;;;;;;5.32;2.28;;;;;;;6.94;73.59;101076.28;10275938;28;20150;-60
2023/12/14 18:43:49;;;;;;;5.93;2.40;;;;;;;6.99;72.85;101085.72;10274792;28;20042;-60
2023/12/14 18:48:50;;;;;;;7.63;2.90;;;;;;;7.09;72.79;101095.50;10276209;28;20074;-61
2023/12/14 18:53:52;;;;;;;6.35;2.38;;;;;;;7.10;72.74;101115.03;10280793;28;20081;-61
2023/12/14 18:58:53;;;;;;;8.00;2.60;;;;;;;7.18;72.74;101109.84;10273405;28;20059;-60
2023/12/14 19:03:56;;;;;;;6.93;2.35;;;;;;;7.39;72.35;101119.66;10268215;28;20095;-60
2023/12/14 19:08:57;;;;;;;10.98;4.30;;;;;;;7.50;72.75;101123.06;10272350;28;20105;-61
2023/12/14 19:13:59;;;;;;;11.85;4.57;;;;;;;7.58;72.18;101135.72;10279454;28;20043;-61
2023/12/14 19:19:01;;;;;;;11.90;3.88;;;;;;;7.65;72.50;101150.28;10277699;28;20439;-60
2023/12/14 19:24:03;;;;;;;7.13;3.20;;;;;;;7.78;72.25;101154.50;10272251;28;20136;-60
2023/12/14 19:29:06;;;;;;;10.98;4.35;;;;;;;7.86;72.32;101163.56;10274552;28;20352;-60
2023/12/14 19:34:07;;;;;;;11.10;3.80;;;;;;;7.79;72.67;101173.13;10274655;28;20055;-61
2023/12/14 19:39:09;;;;;;;8.30;3.45;;;;;;;7.83;72.24;101185.25;10284846;28;20118;-62
2023/12/14 19:44:10;;;;;;;10.95;3.97;;;;;;;7.87;72.90;101188.50;10285072;28;20049;-61
2023/12/14 19:49:12;;;;;;;9.52;4.40;;;;;;;7.81;72.61;101195.25;10285654;28;20057;-60
2023/12/14 19:54:13;;;;;;;9.38;3.85;;;;;;;7.86;72.99;101203.72;10286704;28;20185;-60
2023/12/14 19:59:14;;;;;;;9.35;3.50;;;;;;;7.88;73.08;101199.06;10285226;28;20050;-60
2023/12/14 20:04:17;;;;;;;9.00;3.90;;;;;;;7.90;73.02;101206.97;10286414;28;20058;-60
2023/12/14 20:09:18;;;;;;;9.88;3.88;;;;;;;7.93;73.10;101220.06;10281809;28;20379;-60
2023/12/14 20:14:20;;;;;;;14.93;4.47;;;;;;;7.99;73.10;101232.91;10277131;28;20067;-59
2023/12/14 20:19:22;;;;;;;11.90;4.78;;;;;;;8.00;72.87;101239.09;10281217;28;20047;-59
2023/12/14 20:24:23;;;;;;;10.05;3.72;;;;;;;7.99;72.70;101237.41;10275652;28;20053;-59
2023/12/14 20:29:25;;;;;;;9.82;4.20;;;;;;;8.00;72.89;101256.03;10282557;28;20043;-60
2023/12/14 20:34:26;;;;;;;10.35;4.30;;;;;;;7.95;73.32;101261.75;10276479;28;20043;-60
2023/12/14 20:39:28;;;;;;;8.10;3.50;;;;;;;7.86;73.44;101256.38;10279835;28;20062;-59
2023/12/14 20:44:29;;;;;;;11.63;5.28;;;;;;;7.94;73.09;101268.13;10286568;28;20056;-59
2023/12/14 20:49:31;;;;;;;11.27;4.72;;;;;;;7.95;73.18;101285.84;10278521;28;20522;-61
2023/12/14 20:54:32;;;;;;;9.82;4.28;;;;;;;7.98;73.18;101292.78;10274853;28;20065;-60
2023/12/14 20:59:34;;;;;;;11.93;4.47;;;;;;;7.94;73.09;101294.88;10280593;28;20407;-59
2023/12/14 21:04:35;;;;;;;7.32;3.47;;;;;;;7.90;73.07;101293.47;10278650;28;20047;-59
2023/12/14 21:09:36;;;;;;;6.18;2.45;;;;;;;7.85;73.49;101309.06;10278957;28;20031;-61
2023/12/14 21:14:38;;;;;;;8.20;4.07;;;;;;;7.88;73.38;101298.13;10275180;28;20051;-58
2023/12/14 21:19:46;;;;;;;6.40;2.40;;;;;;;7.79;72.90;101309.63;10280221;28;20057;-61
2023/12/14 21:24:49;;;;;;;6.70;2.67;;;;;;;7.65;73.31;101301.94;10278840;28;20047;-61
2023/12/14 21:29:50;;;;;;;7.25;3.17;;;;;;;7.49;73.41;101313.13;10284288;28;20035;-60
2023/12/14 21:34:52;;;;;;;7.03;2.53;;;;;;;7.39;73.56;101309.56;10287987;28;20046;-59
2023/12/14 21:39:53;;;;;;;7.80;2.30;;;;;;;7.23;73.78;101310.88;10285041;28;20070;-59
2023/12/14 21:44:55;;;;;;;8.23;2.95;;;;;;;7.01;74.11;101327.00;10277296;28;20691;-59
2023/12/14 21:49:59;;;;;;;7.70;2.60;;;;;;;7.01;73.90;101327.00;10275481;28;21049;-58
2023/12/14 21:55:01;;;;;;;8.35;3.35;;;;;;;6.78;74.08;101339.63;10277471;28;20536;-58
2023/12/14 22:00:03;;;;;;;10.85;3.17;;;;;;;6.70;74.30;101332.25;10282322;28;20063;-58
2023/12/14 22:05:05;;;;;;;10.05;3.85;;;;;;;6.72;73.33;101349.84;10273810;28;20057;-59
2023/12/14 22:10:07;;;;;;;10.85;3.75;;;;;;;6.69;73.73;101351.91;10279097;28;20055;-60
2023/12/14 22:15:09;;;;;;;10.82;3.95;;;;;;;6.80;73.52;101359.91;10273142;28;20034;-59
2023/12/14 22:20:10;;;;;;;13.15;4.78;;;;;;;6.95;72.76;101368.44;10276097;28;20039;-60
2023/12/14 22:25:12;;;;;;;11.70;3.75;;;;;;;6.98;72.17;101376.22;10307194;28;20362;-59
2023/12/14 22:30:13;;;;;;;11.85;5.22;;;;;;;7.02;72.16;101391.03;10286807;28;20069;-60
2023/12/14 22:35:15;;;;;;;13.45;4.70;;;;;;;7.16;72.18;101405.94;10285415;28;20050;-60
2023/12/14 22:40:16;;;;;;;11.43;4.30;;;;;;;7.25;71.82;101410.53;10282298;28;20042;-60
2023/12/14 22:45:19;;;;;;;10.30;4.20;;;;;;;7.30;72.18;101407.47;10299688;28;20051;-60
2023/12/14 22:50:20;;;;;;;13.23;3.85;;;;;;;7.36;72.00;101425.66;10299954;28;20109;-60
2023/12/14 22:55:23;;;;;;;14.18;6.03;;;;;;;7.44;72.42;101430.38;10291509;28;20047;-60
2023/12/14 23:00:28;;;;;;;13.45;5.38;;;;;;;7.46;72.10;101437.28;10301434;28;20118;-60
2023/12/14 23:05:30;;;;;;;13.68;5.32;;;;;;;7.43;72.60;101436.72;10301647;28;20069;-60
2023/12/14 23:10:32;;;;;;;11.40;4.60;;;;;;;7.45;72.86;101448.13;10299111;28;20038;-59